sensor_id;sensor_type;location;lat;lon;timestamp;temperature;humidity
15259;DHT22;34462;51.368;12.364;2024-03-08T00:00:52;1.70;99.90
15259;DHT22;34462;51.368;12.364;2024-03-08T00:03:20;1.60;99.90
15259;DHT22;34462;51.368;12.364;2024-03-08T00:05:49;1.60;99.90
15259;DHT22;34462;51.368;12.364;2024-03-08T00:08:19;1.50;99.90
15259;DHT22;34462;51.368;12.364;2024-03-08T00:10:48;1.50;99.90
15259;DHT22;34462;51.368;12.364;2024-03-08T00:13:16;1.40;99.90
15259;DHT22;34462;51.368;12.364;2024-03-08T00:15:44;1.60;99.90
15259;DHT22;34462;51.368;12.364;2024-03-08T00:18:12;1.60;99.90
15259;DHT22;34462;51.368;12.364;2024-03-08T00:20:41;1.60;99.90
15259;DHT22;34462;51.368;12.364;2024-03-08T00:23:11;1.50;99.90
15259;DHT22;34462;51.368;12.364;2024-03-08T00:25:41;1.60;99.90
15259;DHT22;34462;51.368;12.364;2024-03-08T00:28:09;1.60;99.90
15259;DHT22;34462;51.368;12.364;2024-03-08T00:30:40;1.60;99.90
15259;DHT22;34462;51.368;12.364;2024-03-08T00:33:09;1.60;99.90
15259;DHT22;34462;51.368;12.364;2024-03-08T00:35:37;1.60;99.90
15259;DHT22;34462;51.368;12.364;2024-03-08T00:38:09;1.50;99.90
15259;DHT22;34462;51.368;12.364;2024-03-08T00:40:38;1.60;99.90
15259;DHT22;34462;51.368;12.364;2024-03-08T00:43:08;1.50;99.90
15259;DHT22;34462;51.368;12.364;2024-03-08T00:45:36;1.50;99.90
15259;DHT22;34462;51.368;12.364;2024-03-08T00:48:05;1.50;99.90
15259;DHT22;34462;51.368;12.364;2024-03-08T00:50:36;1.50;99.90
15259;DHT22;34462;51.368;12.364;2024-03-08T00:53:04;1.50;99.90
15259;DHT22;34462;51.368;12.364;2024-03-08T00:55:32;1.50;99.90
15259;DHT22;34462;51.368;12.364;2024-03-08T00:58:01;1.50;99.90
15259;DHT22;34462;51.368;12.364;2024-03-08T01:00:31;1.50;99.90
15259;DHT22;34462;51.368;12.364;2024-03-08T01:02:59;1.50;99.90
15259;DHT22;34462;51.368;12.364;2024-03-08T01:05:30;1.50;99.90
15259;DHT22;34462;51.368;12.364;2024-03-08T01:07:58;1.50;99.90
15259;DHT22;34462;51.368;12.364;2024-03-08T01:10:27;1.50;99.90
15259;DHT22;34462;51.368;12.364;2024-03-08T01:12:58;1.40;99.90
15259;DHT22;34462;51.368;12.364;2024-03-08T01:15:26;1.30;99.90
15259;DHT22;34462;51.368;12.364;2024-03-08T01:17:56;1.30;99.90
15259;DHT22;34462;51.368;12.364;2024-03-08T01:20:24;1.40;99.90
15259;DHT22;34462;51.368;12.364;2024-03-08T01:22:54;1.40;99.90
15259;DHT22;34462;51.368;12.364;2024-03-08T01:25:23;1.50;99.90
15259;DHT22;34462;51.368;12.364;2024-03-08T01:27:52;1.50;99.90
15259;DHT22;34462;51.368;12.364;2024-03-08T01:30:21;1.40;99.90
15259;DHT22;34462;51.368;12.364;2024-03-08T01:32:50;1.50;99.90
15259;DHT22;34462;51.368;12.364;2024-03-08T01:35:21;1.40;99.90
15259;DHT22;34462;51.368;12.364;2024-03-08T01:37:50;1.40;99.90
15259;DHT22;34462;51.368;12.364;2024-03-08T01:40:18;1.40;99.90
15259;DHT22;34462;51.368;12.364;2024-03-08T01:42:46;1.50;99.90
15259;DHT22;34462;51.368;12.364;2024-03-08T01:45:14;1.40;99.90
15259;DHT22;34462;51.368;12.364;2024-03-08T01:47:43;1.40;99.90
15259;DHT22;34462;51.368;12.364;2024-03-08T01:50:14;1.40;99.90
15259;DHT22;34462;51.368;12.364;2024-03-08T01:52:45;1.30;99.90
15259;DHT22;34462;51.368;12.364;2024-03-08T01:55:13;1.40;99.90
15259;DHT22;34462;51.368;12.364;2024-03-08T01:57:44;1.40;99.90
15259;DHT22;34462;51.368;12.364;2024-03-08T02:00:13;1.40;99.90
15259;DHT22;34462;51.368;12.364;2024-03-08T02:02:43;1.40;99.90
15259;DHT22;34462;51.368;12.364;2024-03-08T02:05:21;1.40;99.90
15259;DHT22;34462;51.368;12.364;2024-03-08T02:07:51;1.40;99.90
15259;DHT22;34462;51.368;12.364;2024-03-08T02:10:19;1.40;99.90
15259;DHT22;34462;51.368;12.364;2024-03-08T02:12:49;1.40;99.90
15259;DHT22;34462;51.368;12.364;2024-03-08T02:15:18;1.30;99.90
15259;DHT22;34462;51.368;12.364;2024-03-08T02:17:48;1.30;99.90
15259;DHT22;34462;51.368;12.364;2024-03-08T02:20:16;1.20;99.90
15259;DHT22;34462;51.368;12.364;2024-03-08T02:22:48;1.40;99.90
15259;DHT22;34462;51.368;12.364;2024-03-08T02:25:19;1.20;99.90
15259;DHT22;34462;51.368;12.364;2024-03-08T02:27:47;1.20;99.90
15259;DHT22;34462;51.368;12.364;2024-03-08T02:30:15;1.10;99.90
15259;DHT22;34462;51.368;12.364;2024-03-08T02:32:44;1.10;99.90
15259;DHT22;34462;51.368;12.364;2024-03-08T02:35:12;1.00;99.90
15259;DHT22;34462;51.368;12.364;2024-03-08T02:37:41;1.00;99.90
15259;DHT22;34462;51.368;12.364;2024-03-08T02:40:12;0.90;99.90
15259;DHT22;34462;51.368;12.364;2024-03-08T02:42:40;1.00;99.90
15259;DHT22;34462;51.368;12.364;2024-03-08T02:45:08;1.00;99.90
15259;DHT22;34462;51.368;12.364;2024-03-08T02:47:38;0.90;99.90
15259;DHT22;34462;51.368;12.364;2024-03-08T02:50:08;0.80;99.90
15259;DHT22;34462;51.368;12.364;2024-03-08T02:52:37;0.80;99.90
15259;DHT22;34462;51.368;12.364;2024-03-08T02:55:06;0.80;99.90
15259;DHT22;34462;51.368;12.364;2024-03-08T02:57:44;0.80;99.90
15259;DHT22;34462;51.368;12.364;2024-03-08T03:00:14;0.80;99.90
15259;DHT22;34462;51.368;12.364;2024-03-08T03:02:43;0.70;99.90
15259;DHT22;34462;51.368;12.364;2024-03-08T03:05:12;0.70;99.90
15259;DHT22;34462;51.368;12.364;2024-03-08T03:07:40;0.70;99.90
15259;DHT22;34462;51.368;12.364;2024-03-08T03:10:09;0.60;99.90
15259;DHT22;34462;51.368;12.364;2024-03-08T03:12:38;0.60;99.90
15259;DHT22;34462;51.368;12.364;2024-03-08T03:15:09;0.50;99.90
15259;DHT22;34462;51.368;12.364;2024-03-08T03:17:39;0.50;99.90
15259;DHT22;34462;51.368;12.364;2024-03-08T03:20:08;0.50;99.90
15259;DHT22;34462;51.368;12.364;2024-03-08T03:22:41;0.50;99.90
15259;DHT22;34462;51.368;12.364;2024-03-08T03:25:13;0.60;99.90
15259;DHT22;34462;51.368;12.364;2024-03-08T03:27:52;0.60;99.90
15259;DHT22;34462;51.368;12.364;2024-03-08T03:30:23;0.60;99.90
15259;DHT22;34462;51.368;12.364;2024-03-08T03:32:53;0.50;99.90
15259;DHT22;34462;51.368;12.364;2024-03-08T03:35:23;0.50;99.90
15259;DHT22;34462;51.368;12.364;2024-03-08T03:37:52;0.50;99.90
15259;DHT22;34462;51.368;12.364;2024-03-08T03:40:33;0.50;99.90
15259;DHT22;34462;51.368;12.364;2024-03-08T03:43:03;0.50;99.90
15259;DHT22;34462;51.368;12.364;2024-03-08T03:45:32;0.40;99.90
15259;DHT22;34462;51.368;12.364;2024-03-08T03:48:04;0.50;99.90
15259;DHT22;34462;51.368;12.364;2024-03-08T03:50:37;0.40;99.90
15259;DHT22;34462;51.368;12.364;2024-03-08T03:53:07;0.40;99.90
15259;DHT22;34462;51.368;12.364;2024-03-08T03:55:37;0.40;99.90
15259;DHT22;34462;51.368;12.364;2024-03-08T03:58:09;0.40;99.90
15259;DHT22;34462;51.368;12.364;2024-03-08T04:00:38;0.40;99.90
15259;DHT22;34462;51.368;12.364;2024-03-08T04:03:08;0.50;99.90
15259;DHT22;34462;51.368;12.364;2024-03-08T04:05:36;0.40;99.90
15259;DHT22;34462;51.368;12.364;2024-03-08T04:08:05;0.40;99.90
15259;DHT22;34462;51.368;12.364;2024-03-08T04:10:33;0.50;99.90
15259;DHT22;34462;51.368;12.364;2024-03-08T04:13:01;0.50;99.90
15259;DHT22;34462;51.368;12.364;2024-03-08T04:15:32;0.50;99.90
15259;DHT22;34462;51.368;12.364;2024-03-08T04:18:00;0.50;99.90
15259;DHT22;34462;51.368;12.364;2024-03-08T04:20:29;0.50;99.90
15259;DHT22;34462;51.368;12.364;2024-03-08T04:22:57;0.50;99.90
15259;DHT22;34462;51.368;12.364;2024-03-08T04:25:25;0.50;99.90
15259;DHT22;34462;51.368;12.364;2024-03-08T04:27:54;0.40;99.90
15259;DHT22;34462;51.368;12.364;2024-03-08T04:30:23;0.40;99.90
15259;DHT22;34462;51.368;12.364;2024-03-08T04:32:52;0.40;99.90
15259;DHT22;34462;51.368;12.364;2024-03-08T04:35:21;0.40;99.90
15259;DHT22;34462;51.368;12.364;2024-03-08T04:37:49;0.40;99.90
15259;DHT22;34462;51.368;12.364;2024-03-08T04:40:17;0.40;99.90
15259;DHT22;34462;51.368;12.364;2024-03-08T04:42:46;0.40;99.90
15259;DHT22;34462;51.368;12.364;2024-03-08T04:45:18;0.40;99.90
15259;DHT22;34462;51.368;12.364;2024-03-08T04:47:46;0.50;99.90
15259;DHT22;34462;51.368;12.364;2024-03-08T04:50:16;0.50;99.90
15259;DHT22;34462;51.368;12.364;2024-03-08T04:52:48;0.50;99.90
15259;DHT22;34462;51.368;12.364;2024-03-08T04:55:16;0.50;99.90
15259;DHT22;34462;51.368;12.364;2024-03-08T04:57:47;0.50;99.90
15259;DHT22;34462;51.368;12.364;2024-03-08T05:00:16;0.50;99.90
15259;DHT22;34462;51.368;12.364;2024-03-08T05:02:46;0.40;99.90
15259;DHT22;34462;51.368;12.364;2024-03-08T05:05:16;0.40;99.90
15259;DHT22;34462;51.368;12.364;2024-03-08T05:07:44;0.40;99.90
15259;DHT22;34462;51.368;12.364;2024-03-08T05:10:12;0.40;99.90
15259;DHT22;34462;51.368;12.364;2024-03-08T05:12:48;0.40;99.90
15259;DHT22;34462;51.368;12.364;2024-03-08T05:17:48;0.40;99.90
15259;DHT22;34462;51.368;12.364;2024-03-08T05:20:18;0.30;99.90
15259;DHT22;34462;51.368;12.364;2024-03-08T05:22:46;0.30;99.90
15259;DHT22;34462;51.368;12.364;2024-03-08T05:25:14;0.30;99.90
15259;DHT22;34462;51.368;12.364;2024-03-08T05:27:44;0.30;99.90
15259;DHT22;34462;51.368;12.364;2024-03-08T05:30:17;0.20;99.90
15259;DHT22;34462;51.368;12.364;2024-03-08T05:32:48;0.20;99.90
15259;DHT22;34462;51.368;12.364;2024-03-08T05:35:18;0.20;99.90
15259;DHT22;34462;51.368;12.364;2024-03-08T05:37:47;0.20;99.90
15259;DHT22;34462;51.368;12.364;2024-03-08T05:40:15;0.20;99.90
15259;DHT22;34462;51.368;12.364;2024-03-08T05:42:47;0.20;99.90
15259;DHT22;34462;51.368;12.364;2024-03-08T05:45:15;0.20;99.90
15259;DHT22;34462;51.368;12.364;2024-03-08T05:47:43;0.20;99.90
15259;DHT22;34462;51.368;12.364;2024-03-08T05:50:14;0.30;99.90
15259;DHT22;34462;51.368;12.364;2024-03-08T05:52:45;0.30;99.90
15259;DHT22;34462;51.368;12.364;2024-03-08T05:55:14;0.30;99.90
15259;DHT22;34462;51.368;12.364;2024-03-08T05:57:42;0.30;99.90
15259;DHT22;34462;51.368;12.364;2024-03-08T06:00:11;0.30;99.90
15259;DHT22;34462;51.368;12.364;2024-03-08T06:02:42;0.30;99.90
15259;DHT22;34462;51.368;12.364;2024-03-08T06:05:11;0.40;99.90
15259;DHT22;34462;51.368;12.364;2024-03-08T06:07:39;0.50;99.90
15259;DHT22;34462;51.368;12.364;2024-03-08T06:10:11;0.50;99.90
15259;DHT22;34462;51.368;12.364;2024-03-08T06:12:40;0.50;99.90
15259;DHT22;34462;51.368;12.364;2024-03-08T06:15:09;0.50;99.90
15259;DHT22;34462;51.368;12.364;2024-03-08T06:17:41;0.50;99.90
15259;DHT22;34462;51.368;12.364;2024-03-08T06:20:11;0.60;99.90
15259;DHT22;34462;51.368;12.364;2024-03-08T06:22:40;0.60;99.90
15259;DHT22;34462;51.368;12.364;2024-03-08T06:25:10;0.70;99.90
15259;DHT22;34462;51.368;12.364;2024-03-08T06:30:11;0.70;99.90
15259;DHT22;34462;51.368;12.364;2024-03-08T06:32:43;0.80;99.90
15259;DHT22;34462;51.368;12.364;2024-03-08T06:35:11;0.80;99.90
15259;DHT22;34462;51.368;12.364;2024-03-08T06:37:40;0.90;99.90
15259;DHT22;34462;51.368;12.364;2024-03-08T06:40:12;1.00;99.90
15259;DHT22;34462;51.368;12.364;2024-03-08T06:42:41;1.10;99.90
15259;DHT22;34462;51.368;12.364;2024-03-08T06:45:10;1.10;99.90
15259;DHT22;34462;51.368;12.364;2024-03-08T06:47:39;1.20;99.90
15259;DHT22;34462;51.368;12.364;2024-03-08T06:50:10;1.30;99.90
15259;DHT22;34462;51.368;12.364;2024-03-08T07:58:54;3.50;99.90
15259;DHT22;34462;51.368;12.364;2024-03-08T08:42:07;4.70;99.90
15259;DHT22;34462;51.368;12.364;2024-03-08T08:44:36;4.90;99.90
15259;DHT22;34462;51.368;12.364;2024-03-08T08:47:04;5.10;99.90
15259;DHT22;34462;51.368;12.364;2024-03-08T08:49:41;5.40;99.90
15259;DHT22;34462;51.368;12.364;2024-03-08T08:52:09;5.30;99.90
15259;DHT22;34462;51.368;12.364;2024-03-08T08:54:43;5.40;99.90
15259;DHT22;34462;51.368;12.364;2024-03-08T09:07:17;5.70;99.90
15259;DHT22;34462;51.368;12.364;2024-03-08T09:09:46;5.80;99.90
15259;DHT22;34462;51.368;12.364;2024-03-08T09:12:14;5.90;99.90
15259;DHT22;34462;51.368;12.364;2024-03-08T09:14:44;6.00;99.90
15259;DHT22;34462;51.368;12.364;2024-03-08T09:17:12;6.00;99.90
15259;DHT22;34462;51.368;12.364;2024-03-08T09:19:44;6.20;99.90
15259;DHT22;34462;51.368;12.364;2024-03-08T09:32:12;6.40;99.90
15259;DHT22;34462;51.368;12.364;2024-03-08T09:39:39;6.50;99.90
15259;DHT22;34462;51.368;12.364;2024-03-08T09:42:07;6.70;99.90
15259;DHT22;34462;51.368;12.364;2024-03-08T09:44:37;6.70;99.90
15259;DHT22;34462;51.368;12.364;2024-03-08T10:34:48;7.70;99.90
15259;DHT22;34462;51.368;12.364;2024-03-08T10:37:21;7.70;99.90
15259;DHT22;34462;51.368;12.364;2024-03-08T10:40:00;7.70;99.90
15259;DHT22;34462;51.368;12.364;2024-03-08T10:42:40;7.80;99.90
15259;DHT22;34462;51.368;12.364;2024-03-08T10:45:31;8.00;99.90
15259;DHT22;34462;51.368;12.364;2024-03-08T10:48:26;8.00;99.90
15259;DHT22;34462;51.368;12.364;2024-03-08T10:51:04;8.00;99.90
15259;DHT22;34462;51.368;12.364;2024-03-08T10:53:34;8.10;99.90
15259;DHT22;34462;51.368;12.364;2024-03-08T10:56:08;8.00;99.90
15259;DHT22;34462;51.368;12.364;2024-03-08T10:58:38;8.10;99.90
15259;DHT22;34462;51.368;12.364;2024-03-08T11:01:07;8.20;99.90
15259;DHT22;34462;51.368;12.364;2024-03-08T11:03:48;8.20;99.90
15259;DHT22;34462;51.368;12.364;2024-03-08T11:06:29;8.20;99.90
15259;DHT22;34462;51.368;12.364;2024-03-08T11:08:59;8.30;99.90
15259;DHT22;34462;51.368;12.364;2024-03-08T11:11:28;8.40;99.90
15259;DHT22;34462;51.368;12.364;2024-03-08T11:14:02;8.50;99.90
15259;DHT22;34462;51.368;12.364;2024-03-08T11:16:39;8.70;99.90
15259;DHT22;34462;51.368;12.364;2024-03-08T11:19:26;8.60;99.90
15259;DHT22;34462;51.368;12.364;2024-03-08T11:21:59;8.60;99.90
15259;DHT22;34462;51.368;12.364;2024-03-08T11:24:40;8.70;99.90
15259;DHT22;34462;51.368;12.364;2024-03-08T11:27:09;8.70;99.90
15259;DHT22;34462;51.368;12.364;2024-03-08T11:29:38;8.60;99.90
15259;DHT22;34462;51.368;12.364;2024-03-08T11:32:11;8.60;99.90
15259;DHT22;34462;51.368;12.364;2024-03-08T11:34:42;8.70;99.90
15259;DHT22;34462;51.368;12.364;2024-03-08T11:37:13;8.90;99.90
15259;DHT22;34462;51.368;12.364;2024-03-08T11:39:47;8.90;99.90
15259;DHT22;34462;51.368;12.364;2024-03-08T11:42:16;9.00;99.90
15259;DHT22;34462;51.368;12.364;2024-03-08T11:44:46;9.00;99.90
15259;DHT22;34462;51.368;12.364;2024-03-08T11:47:15;9.00;99.90
15259;DHT22;34462;51.368;12.364;2024-03-08T11:49:45;8.90;99.90
15259;DHT22;34462;51.368;12.364;2024-03-08T11:52:16;8.90;99.90
15259;DHT22;34462;51.368;12.364;2024-03-08T11:54:51;8.90;99.90
15259;DHT22;34462;51.368;12.364;2024-03-08T11:57:22;9.00;99.90
15259;DHT22;34462;51.368;12.364;2024-03-08T11:59:51;9.00;99.90
15259;DHT22;34462;51.368;12.364;2024-03-08T12:02:23;9.20;99.90
15259;DHT22;34462;51.368;12.364;2024-03-08T12:04:57;9.20;99.90
15259;DHT22;34462;51.368;12.364;2024-03-08T12:07:28;9.20;99.90
15259;DHT22;34462;51.368;12.364;2024-03-08T12:10:16;9.20;99.90
15259;DHT22;34462;51.368;12.364;2024-03-08T12:12:46;9.20;99.90
15259;DHT22;34462;51.368;12.364;2024-03-08T12:15:15;9.30;99.90
15259;DHT22;34462;51.368;12.364;2024-03-08T12:17:45;9.30;99.90
15259;DHT22;34462;51.368;12.364;2024-03-08T12:20:18;9.40;99.90
15259;DHT22;34462;51.368;12.364;2024-03-08T12:22:49;9.40;99.90
15259;DHT22;34462;51.368;12.364;2024-03-08T12:25:20;9.30;99.90
15259;DHT22;34462;51.368;12.364;2024-03-08T12:27:48;9.30;99.90
15259;DHT22;34462;51.368;12.364;2024-03-08T12:30:22;9.30;99.90
15259;DHT22;34462;51.368;12.364;2024-03-08T12:32:55;9.30;99.90
15259;DHT22;34462;51.368;12.364;2024-03-08T12:35:27;9.30;99.90
15259;DHT22;34462;51.368;12.364;2024-03-08T12:37:57;9.30;99.90
15259;DHT22;34462;51.368;12.364;2024-03-08T12:40:28;9.30;99.90
15259;DHT22;34462;51.368;12.364;2024-03-08T12:42:58;9.30;99.90
15259;DHT22;34462;51.368;12.364;2024-03-08T12:45:27;9.40;99.90
15259;DHT22;34462;51.368;12.364;2024-03-08T12:47:55;9.40;99.90
15259;DHT22;34462;51.368;12.364;2024-03-08T12:50:27;9.50;99.90
15259;DHT22;34462;51.368;12.364;2024-03-08T12:52:56;9.50;99.90
15259;DHT22;34462;51.368;12.364;2024-03-08T12:55:25;9.50;99.90
15259;DHT22;34462;51.368;12.364;2024-03-08T12:57:54;9.50;99.90
15259;DHT22;34462;51.368;12.364;2024-03-08T13:00:22;9.50;99.90
15259;DHT22;34462;51.368;12.364;2024-03-08T13:02:50;9.40;99.90
15259;DHT22;34462;51.368;12.364;2024-03-08T13:05:19;9.40;99.90
15259;DHT22;34462;51.368;12.364;2024-03-08T13:07:48;9.40;99.90
15259;DHT22;34462;51.368;12.364;2024-03-08T13:10:17;9.60;99.90
15259;DHT22;34462;51.368;12.364;2024-03-08T13:12:47;9.50;99.90
15259;DHT22;34462;51.368;12.364;2024-03-08T13:15:19;9.60;99.90
15259;DHT22;34462;51.368;12.364;2024-03-08T13:17:47;9.60;99.90
15259;DHT22;34462;51.368;12.364;2024-03-08T13:20:17;9.60;99.90
15259;DHT22;34462;51.368;12.364;2024-03-08T13:22:57;9.70;99.90
15259;DHT22;34462;51.368;12.364;2024-03-08T13:25:28;9.70;99.90
15259;DHT22;34462;51.368;12.364;2024-03-08T13:27:57;9.70;99.90
15259;DHT22;34462;51.368;12.364;2024-03-08T13:30:27;9.70;99.90
15259;DHT22;34462;51.368;12.364;2024-03-08T13:32:57;9.80;99.90
15259;DHT22;34462;51.368;12.364;2024-03-08T13:35:25;9.90;99.90
15259;DHT22;34462;51.368;12.364;2024-03-08T13:37:58;9.80;99.90
15259;DHT22;34462;51.368;12.364;2024-03-08T13:40:27;9.90;99.90
15259;DHT22;34462;51.368;12.364;2024-03-08T13:42:55;9.90;99.90
15259;DHT22;34462;51.368;12.364;2024-03-08T13:45:25;9.90;99.90
15259;DHT22;34462;51.368;12.364;2024-03-08T13:47:53;9.80;99.90
15259;DHT22;34462;51.368;12.364;2024-03-08T13:50:23;9.80;99.90
15259;DHT22;34462;51.368;12.364;2024-03-08T13:52:53;9.80;99.90
15259;DHT22;34462;51.368;12.364;2024-03-08T13:55:24;9.80;99.90
15259;DHT22;34462;51.368;12.364;2024-03-08T13:57:54;9.90;99.90
15259;DHT22;34462;51.368;12.364;2024-03-08T14:00:24;9.80;99.90
15259;DHT22;34462;51.368;12.364;2024-03-08T14:02:55;9.80;99.90
15259;DHT22;34462;51.368;12.364;2024-03-08T14:05:23;9.90;99.90
15259;DHT22;34462;51.368;12.364;2024-03-08T14:07:51;9.80;99.90
15259;DHT22;34462;51.368;12.364;2024-03-08T14:10:21;9.80;99.90
15259;DHT22;34462;51.368;12.364;2024-03-08T14:12:52;9.80;99.90
15259;DHT22;34462;51.368;12.364;2024-03-08T14:15:20;9.70;99.90
15259;DHT22;34462;51.368;12.364;2024-03-08T14:17:53;9.80;99.90
15259;DHT22;34462;51.368;12.364;2024-03-08T14:20:22;9.80;99.90
15259;DHT22;34462;51.368;12.364;2024-03-08T14:22:52;9.80;99.90
15259;DHT22;34462;51.368;12.364;2024-03-08T14:25:22;9.70;99.90
15259;DHT22;34462;51.368;12.364;2024-03-08T14:27:53;9.70;99.90
15259;DHT22;34462;51.368;12.364;2024-03-08T14:30:25;9.70;99.90
15259;DHT22;34462;51.368;12.364;2024-03-08T14:33:05;9.70;99.90
15259;DHT22;34462;51.368;12.364;2024-03-08T14:35:35;9.60;99.90
15259;DHT22;34462;51.368;12.364;2024-03-08T14:38:05;9.60;99.90
15259;DHT22;34462;51.368;12.364;2024-03-08T14:40:35;9.70;99.90
15259;DHT22;34462;51.368;12.364;2024-03-08T14:43:06;9.70;99.90
15259;DHT22;34462;51.368;12.364;2024-03-08T14:45:34;9.70;99.90
15259;DHT22;34462;51.368;12.364;2024-03-08T14:48:04;9.70;99.90
15259;DHT22;34462;51.368;12.364;2024-03-08T14:50:33;9.60;99.90
15259;DHT22;34462;51.368;12.364;2024-03-08T14:53:04;9.60;99.90
15259;DHT22;34462;51.368;12.364;2024-03-08T14:55:33;9.60;99.90
15259;DHT22;34462;51.368;12.364;2024-03-08T14:58:02;9.60;99.90
15259;DHT22;34462;51.368;12.364;2024-03-08T15:00:32;9.50;99.90
15259;DHT22;34462;51.368;12.364;2024-03-08T15:03:02;9.50;99.90
15259;DHT22;34462;51.368;12.364;2024-03-08T15:05:32;9.50;99.90
15259;DHT22;34462;51.368;12.364;2024-03-08T15:08:05;9.50;99.90
15259;DHT22;34462;51.368;12.364;2024-03-08T15:10:39;9.40;99.90
15259;DHT22;34462;51.368;12.364;2024-03-08T15:13:09;9.50;99.90
15259;DHT22;34462;51.368;12.364;2024-03-08T15:15:51;9.50;99.90
15259;DHT22;34462;51.368;12.364;2024-03-08T15:18:23;9.50;99.90
15259;DHT22;34462;51.368;12.364;2024-03-08T15:20:58;9.50;99.90
15259;DHT22;34462;51.368;12.364;2024-03-08T15:23:26;9.40;99.90
15259;DHT22;34462;51.368;12.364;2024-03-08T15:25:55;9.50;99.90
15259;DHT22;34462;51.368;12.364;2024-03-08T15:28:24;9.40;99.90
15259;DHT22;34462;51.368;12.364;2024-03-08T15:31:02;9.40;99.90
15259;DHT22;34462;51.368;12.364;2024-03-08T15:33:33;9.30;99.90
15259;DHT22;34462;51.368;12.364;2024-03-08T15:36:08;9.30;99.90
15259;DHT22;34462;51.368;12.364;2024-03-08T15:38:38;9.20;99.90
15259;DHT22;34462;51.368;12.364;2024-03-08T15:41:06;9.10;99.90
15259;DHT22;34462;51.368;12.364;2024-03-08T15:43:37;9.10;99.90
15259;DHT22;34462;51.368;12.364;2024-03-08T15:46:08;9.10;99.90
15259;DHT22;34462;51.368;12.364;2024-03-08T15:48:38;9.10;99.90
15259;DHT22;34462;51.368;12.364;2024-03-08T15:51:09;8.90;99.90
15259;DHT22;34462;51.368;12.364;2024-03-08T15:53:38;8.90;99.90
15259;DHT22;34462;51.368;12.364;2024-03-08T15:56:06;8.90;99.90
15259;DHT22;34462;51.368;12.364;2024-03-08T15:58:36;8.90;99.90
15259;DHT22;34462;51.368;12.364;2024-03-08T16:01:07;8.90;99.90
15259;DHT22;34462;51.368;12.364;2024-03-08T16:03:37;8.90;99.90
15259;DHT22;34462;51.368;12.364;2024-03-08T16:06:05;8.80;99.90
15259;DHT22;34462;51.368;12.364;2024-03-08T16:08:34;8.80;99.90
15259;DHT22;34462;51.368;12.364;2024-03-08T16:11:04;8.70;99.90
15259;DHT22;34462;51.368;12.364;2024-03-08T16:13:34;8.70;99.90
15259;DHT22;34462;51.368;12.364;2024-03-08T16:16:07;8.70;99.90
15259;DHT22;34462;51.368;12.364;2024-03-08T16:18:35;8.60;99.90
15259;DHT22;34462;51.368;12.364;2024-03-08T16:21:05;8.60;99.90
15259;DHT22;34462;51.368;12.364;2024-03-08T16:23:34;8.50;99.90
15259;DHT22;34462;51.368;12.364;2024-03-08T16:26:03;8.50;99.90
15259;DHT22;34462;51.368;12.364;2024-03-08T16:28:33;8.40;99.90
15259;DHT22;34462;51.368;12.364;2024-03-08T16:31:08;8.40;99.90
15259;DHT22;34462;51.368;12.364;2024-03-08T16:33:38;8.40;99.90
15259;DHT22;34462;51.368;12.364;2024-03-08T16:36:07;8.40;99.90
15259;DHT22;34462;51.368;12.364;2024-03-08T16:38:38;8.30;99.90
15259;DHT22;34462;51.368;12.364;2024-03-08T16:41:07;8.30;99.90
15259;DHT22;34462;51.368;12.364;2024-03-08T16:43:36;8.20;99.90
15259;DHT22;34462;51.368;12.364;2024-03-08T16:46:05;8.20;99.90
15259;DHT22;34462;51.368;12.364;2024-03-08T16:48:35;8.20;99.90
15259;DHT22;34462;51.368;12.364;2024-03-08T16:51:03;8.10;99.90
15259;DHT22;34462;51.368;12.364;2024-03-08T16:53:36;8.00;99.90
15259;DHT22;34462;51.368;12.364;2024-03-08T16:56:08;8.00;99.90
15259;DHT22;34462;51.368;12.364;2024-03-08T16:58:40;7.90;99.90
15259;DHT22;34462;51.368;12.364;2024-03-08T17:01:10;7.90;99.90
15259;DHT22;34462;51.368;12.364;2024-03-08T17:03:40;7.80;99.90
15259;DHT22;34462;51.368;12.364;2024-03-08T17:06:22;7.80;99.90
15259;DHT22;34462;51.368;12.364;2024-03-08T17:08:52;7.70;99.90
15259;DHT22;34462;51.368;12.364;2024-03-08T17:11:21;7.60;99.90
15259;DHT22;34462;51.368;12.364;2024-03-08T17:13:50;7.50;99.90
15259;DHT22;34462;51.368;12.364;2024-03-08T17:16:18;7.50;99.90
15259;DHT22;34462;51.368;12.364;2024-03-08T17:18:53;7.40;99.90
15259;DHT22;34462;51.368;12.364;2024-03-08T17:21:21;7.40;99.90
15259;DHT22;34462;51.368;12.364;2024-03-08T17:23:49;7.40;99.90
15259;DHT22;34462;51.368;12.364;2024-03-08T17:26:18;7.30;99.90
15259;DHT22;34462;51.368;12.364;2024-03-08T17:28:46;7.20;99.90
15259;DHT22;34462;51.368;12.364;2024-03-08T17:31:16;7.10;99.90
15259;DHT22;34462;51.368;12.364;2024-03-08T17:33:45;7.00;99.90
15259;DHT22;34462;51.368;12.364;2024-03-08T17:36:15;6.90;99.90
15259;DHT22;34462;51.368;12.364;2024-03-08T17:38:44;6.90;99.90
15259;DHT22;34462;51.368;12.364;2024-03-08T17:41:16;6.80;99.90
15259;DHT22;34462;51.368;12.364;2024-03-08T17:43:50;6.70;99.90
15259;DHT22;34462;51.368;12.364;2024-03-08T17:46:19;6.70;99.90
15259;DHT22;34462;51.368;12.364;2024-03-08T17:48:47;6.60;99.90
15259;DHT22;34462;51.368;12.364;2024-03-08T17:51:17;6.50;99.90
15259;DHT22;34462;51.368;12.364;2024-03-08T17:53:45;6.60;99.90
15259;DHT22;34462;51.368;12.364;2024-03-08T17:56:16;6.60;99.90
15259;DHT22;34462;51.368;12.364;2024-03-08T17:58:44;6.50;99.90
15259;DHT22;34462;51.368;12.364;2024-03-08T18:01:12;6.50;99.90
15259;DHT22;34462;51.368;12.364;2024-03-08T18:03:40;6.50;99.90
15259;DHT22;34462;51.368;12.364;2024-03-08T18:06:09;6.40;99.90
15259;DHT22;34462;51.368;12.364;2024-03-08T18:08:38;6.50;99.90
15259;DHT22;34462;51.368;12.364;2024-03-08T18:11:09;6.50;99.90
15259;DHT22;34462;51.368;12.364;2024-03-08T18:13:38;6.50;99.90
15259;DHT22;34462;51.368;12.364;2024-03-08T18:16:06;6.40;99.90
15259;DHT22;34462;51.368;12.364;2024-03-08T18:18:35;6.40;99.90
15259;DHT22;34462;51.368;12.364;2024-03-08T18:21:05;6.30;99.90
15259;DHT22;34462;51.368;12.364;2024-03-08T18:23:33;6.30;99.90
15259;DHT22;34462;51.368;12.364;2024-03-08T18:26:03;6.40;99.90
15259;DHT22;34462;51.368;12.364;2024-03-08T18:28:32;6.30;99.90
15259;DHT22;34462;51.368;12.364;2024-03-08T18:31:00;6.30;99.90
15259;DHT22;34462;51.368;12.364;2024-03-08T18:33:28;6.30;99.90
15259;DHT22;34462;51.368;12.364;2024-03-08T18:35:59;6.20;99.90
15259;DHT22;34462;51.368;12.364;2024-03-08T18:38:28;6.20;99.90
15259;DHT22;34462;51.368;12.364;2024-03-08T18:40:56;6.20;99.90
15259;DHT22;34462;51.368;12.364;2024-03-08T18:43:26;6.20;99.90
15259;DHT22;34462;51.368;12.364;2024-03-08T18:45:55;6.20;99.90
15259;DHT22;34462;51.368;12.364;2024-03-08T18:48:24;6.20;99.90
15259;DHT22;34462;51.368;12.364;2024-03-08T18:50:54;6.20;99.90
15259;DHT22;34462;51.368;12.364;2024-03-08T18:53:26;6.10;99.90